createdAt,value
2018-07-28T00:00:33.335Z,30.80
2018-07-28T00:03:05.699Z,30.70
2018-07-28T00:05:37.855Z,30.70
2018-07-28T00:08:10.277Z,30.80
2018-07-28T00:10:42.581Z,30.80
2018-07-28T00:13:15.059Z,30.80
2018-07-28T00:15:47.422Z,30.90
2018-07-28T00:18:19.610Z,31.00
2018-07-28T00:20:52.481Z,30.90
2018-07-28T00:23:25.008Z,31.00
2018-07-28T00:26:02.779Z,31.00
2018-07-28T00:28:34.993Z,31.00
2018-07-28T00:31:07.193Z,31.00
2018-07-28T00:33:39.861Z,30.90
2018-07-28T00:36:12.691Z,31.00
2018-07-28T00:38:45.287Z,31.00
2018-07-28T00:41:17.684Z,31.00
2018-07-28T00:43:50.170Z,31.00
2018-07-28T00:46:23.700Z,31.00
2018-07-28T00:48:56.029Z,31.00
2018-07-28T00:51:28.696Z,31.10
2018-07-28T00:54:01.274Z,31.10
2018-07-28T00:59:05.216Z,31.10
2018-07-28T01:01:37.443Z,31.10
2018-07-28T01:04:10.084Z,31.10
2018-07-28T01:06:42.937Z,31.10
2018-07-28T01:09:15.365Z,31.00
2018-07-28T01:11:48.049Z,30.90
2018-07-28T01:14:20.584Z,31.00
2018-07-28T01:16:52.886Z,31.00
2018-07-28T01:19:26.154Z,31.00
2018-07-28T01:21:58.244Z,31.00
2018-07-28T01:24:30.402Z,30.90
2018-07-28T01:27:03.222Z,31.00
2018-07-28T01:32:07.056Z,30.90
2018-07-28T01:34:39.891Z,31.00
2018-07-28T01:37:12.500Z,31.00
2018-07-28T01:39:45.737Z,30.90
2018-07-28T01:42:18.166Z,30.90
2018-07-28T01:44:50.503Z,30.80
2018-07-28T01:47:23.119Z,30.80
2018-07-28T01:49:55.477Z,30.80
2018-07-28T01:52:29.148Z,30.80
2018-07-28T01:55:01.405Z,30.80
2018-07-28T01:57:33.864Z,30.80
2018-07-28T02:00:07.627Z,30.70
2018-07-28T02:02:40.005Z,30.60
2018-07-28T02:05:12.470Z,30.60
2018-07-28T02:07:44.964Z,30.50
2018-07-28T02:10:17.590Z,30.50
2018-07-28T02:12:49.925Z,30.50
2018-07-28T02:17:53.173Z,30.50
2018-07-28T02:20:25.681Z,30.30
2018-07-28T02:22:58.100Z,30.30
2018-07-28T02:25:30.271Z,30.30
2018-07-28T02:28:02.629Z,30.20
2018-07-28T02:30:35.381Z,30.10
2018-07-28T02:33:07.795Z,30.00
2018-07-28T02:35:40.151Z,30.00
2018-07-28T02:38:12.958Z,29.90
2018-07-28T02:40:46.066Z,29.80
2018-07-28T02:43:18.502Z,29.70
2018-07-28T02:45:50.603Z,29.60
2018-07-28T02:48:23.487Z,29.50
2018-07-28T02:53:27.216Z,29.30
2018-07-28T02:56:00.196Z,29.20
2018-07-28T02:58:32.652Z,29.10
2018-07-28T03:01:05.208Z,29.10
2018-07-28T03:03:37.731Z,29.00
2018-07-28T03:06:10.221Z,28.90
2018-07-28T03:08:42.761Z,28.80
2018-07-28T03:11:15.037Z,28.70
2018-07-28T03:13:47.862Z,28.50
2018-07-28T03:16:20.303Z,28.50
2018-07-28T03:18:52.970Z,28.40
2018-07-28T03:21:25.273Z,28.30
2018-07-28T03:23:57.520Z,28.30
2018-07-28T03:26:30.928Z,28.20
2018-07-28T03:29:03.811Z,28.00
2018-07-28T03:31:36.033Z,27.90
2018-07-28T03:34:08.594Z,27.80
2018-07-28T03:36:40.953Z,27.70
2018-07-28T03:39:13.598Z,27.60
2018-07-28T03:41:46.121Z,27.60
2018-07-28T03:44:18.465Z,27.50
2018-07-28T03:46:51.009Z,27.40
2018-07-28T03:49:23.425Z,27.20
2018-07-28T03:51:55.723Z,27.10
2018-07-28T03:54:27.985Z,27.00
2018-07-28T03:57:00.444Z,27.00
2018-07-28T03:59:32.932Z,26.90
2018-07-28T04:02:05.492Z,26.70
2018-07-28T04:04:38.067Z,26.70
2018-07-28T04:07:10.673Z,26.50
2018-07-28T04:09:42.963Z,26.50
2018-07-28T04:12:15.576Z,26.40
2018-07-28T04:14:48.117Z,26.20
2018-07-28T04:17:20.258Z,26.20
2018-07-28T04:19:52.580Z,26.10
2018-07-28T04:22:25.006Z,25.90
2018-07-28T04:24:57.164Z,25.90
2018-07-28T04:27:29.287Z,25.80
2018-07-28T04:30:01.236Z,25.60
2018-07-28T04:32:33.621Z,25.50
2018-07-28T04:35:06.051Z,25.30
2018-07-28T04:37:39.600Z,25.20
2018-07-28T04:40:13.138Z,25.10
2018-07-28T04:42:45.757Z,25.00
2018-07-28T04:45:18.149Z,24.80
2018-07-28T04:47:50.331Z,24.70
2018-07-28T04:50:23.111Z,24.60
2018-07-28T04:52:55.267Z,24.60
2018-07-28T04:55:27.549Z,24.50
2018-07-28T04:57:59.870Z,24.40
2018-07-28T05:00:32.380Z,24.30
2018-07-28T05:03:04.911Z,24.20
2018-07-28T05:05:37.132Z,24.10
2018-07-28T05:08:09.425Z,24.00
2018-07-28T05:10:41.939Z,24.00
2018-07-28T05:13:14.424Z,23.90
2018-07-28T05:15:46.599Z,23.80
2018-07-28T05:18:18.787Z,23.80
2018-07-28T05:20:51.161Z,23.70
2018-07-28T05:23:23.592Z,23.60
2018-07-28T05:25:56.276Z,23.50
2018-07-28T05:28:28.631Z,23.50
2018-07-28T05:31:01.597Z,23.40
2018-07-28T05:33:35.644Z,23.30
2018-07-28T05:36:08.056Z,23.20
2018-07-28T05:38:40.527Z,23.10
2018-07-28T05:41:13.005Z,23.00
2018-07-28T05:43:45.251Z,23.00
2018-07-28T05:46:17.500Z,22.90
2018-07-28T05:48:49.698Z,22.70
2018-07-28T05:51:22.260Z,22.70
2018-07-28T05:53:54.897Z,22.60
2018-07-28T05:56:27.504Z,22.60
2018-07-28T05:59:00.017Z,22.50
2018-07-28T06:01:32.423Z,22.40
2018-07-28T06:04:04.817Z,22.30
2018-07-28T06:06:37.228Z,22.30
2018-07-28T06:09:11.603Z,22.20
2018-07-28T06:11:44.221Z,22.20
2018-07-28T06:14:16.788Z,22.10
2018-07-28T06:16:49.418Z,22.00
2018-07-28T06:19:21.734Z,22.00
2018-07-28T06:21:54.174Z,21.90
2018-07-28T06:24:27.682Z,21.80
2018-07-28T06:27:00.993Z,21.80
2018-07-28T06:29:33.422Z,21.70
2018-07-28T06:32:05.985Z,21.70
2018-07-28T06:34:38.299Z,21.70
2018-07-28T06:37:15.067Z,21.70
2018-07-28T06:39:51.523Z,21.60
2018-07-28T07:31:21.070Z,20.30
2018-07-28T07:33:53.429Z,20.30
2018-07-28T07:36:25.591Z,20.20
2018-07-28T07:38:58.391Z,20.20
2018-07-28T07:41:30.783Z,20.10
2018-07-28T07:44:03.126Z,20.10
2018-07-28T07:46:35.296Z,20.00
2018-07-28T07:49:07.771Z,19.90
2018-07-28T07:51:39.959Z,19.90
2018-07-28T07:54:12.264Z,19.80
2018-07-28T07:56:44.466Z,19.80
2018-07-28T07:59:16.604Z,19.70
2018-07-28T08:04:09.893Z,19.60
2018-07-28T08:06:42.253Z,19.60
2018-07-28T08:09:14.699Z,19.60
2018-07-28T08:11:47.323Z,19.50
2018-07-28T08:14:19.888Z,19.50
2018-07-28T08:16:52.064Z,19.50
2018-07-28T08:19:24.402Z,19.40
2018-07-28T08:21:56.812Z,19.30
2018-07-28T08:27:00.394Z,19.30
2018-07-28T08:29:32.813Z,19.30
2018-07-28T08:32:05.378Z,19.20
2018-07-28T08:37:09.999Z,19.10
2018-07-28T08:39:42.576Z,19.10
2018-07-28T08:42:14.981Z,18.90
2018-07-28T08:44:47.289Z,18.80
2018-07-28T08:47:19.887Z,18.80
2018-07-28T08:49:52.453Z,18.70
2018-07-28T08:52:24.705Z,18.70
2018-07-28T08:54:57.206Z,18.60
2018-07-28T08:57:29.583Z,18.60
2018-07-28T09:00:01.744Z,18.50
2018-07-28T09:02:34.178Z,18.50
2018-07-28T09:05:07.133Z,18.50
2018-07-28T09:10:10.679Z,18.50
2018-07-28T09:12:43.011Z,18.40
2018-07-28T09:15:15.529Z,18.40
2018-07-28T09:17:48.360Z,18.30
2018-07-28T09:22:51.939Z,18.30
2018-07-28T09:25:24.538Z,18.20
2018-07-28T09:27:58.088Z,18.20
2018-07-28T09:30:30.718Z,18.20
2018-07-28T09:33:03.313Z,18.10
2018-07-28T09:35:35.575Z,18.10
2018-07-28T09:38:08.460Z,18.10
2018-07-28T09:40:40.647Z,18.00
2018-07-28T09:43:13.062Z,17.90
2018-07-28T09:45:45.541Z,17.90
2018-07-28T09:48:18.160Z,17.90
2018-07-28T09:50:50.676Z,17.80
2018-07-28T09:53:22.979Z,17.80
2018-07-28T09:55:55.314Z,17.80
2018-07-28T09:58:27.748Z,17.60
2018-07-28T10:01:05.404Z,17.70
2018-07-28T10:03:37.484Z,17.60
2018-07-28T10:06:09.862Z,17.60
2018-07-28T10:08:42.157Z,17.60
2018-07-28T10:11:14.689Z,17.60
2018-07-28T10:13:47.073Z,17.50
2018-07-28T10:16:19.761Z,17.40
2018-07-28T10:18:52.292Z,17.40
2018-07-28T10:21:24.803Z,17.30
2018-07-28T10:23:57.420Z,17.30
2018-07-28T10:26:29.765Z,17.10
2018-07-28T10:29:02.146Z,17.10
2018-07-28T10:31:34.814Z,17.10
2018-07-28T10:34:07.549Z,17.00
2018-07-28T10:36:40.624Z,16.90
2018-07-28T10:39:15.057Z,16.80
2018-07-28T10:41:47.497Z,16.80
2018-07-28T10:44:19.800Z,16.80
2018-07-28T10:46:52.042Z,16.80
2018-07-28T10:49:24.583Z,16.70
2018-07-28T10:51:57.009Z,16.70
2018-07-28T10:54:29.325Z,16.70
2018-07-28T10:57:01.640Z,16.70
2018-07-28T10:59:34.254Z,16.70
2018-07-28T11:02:06.829Z,16.60
2018-07-28T11:04:39.145Z,16.60
2018-07-28T11:07:11.647Z,16.60
2018-07-28T11:09:43.853Z,16.50
2018-07-28T11:12:16.260Z,16.50
2018-07-28T11:14:48.562Z,16.40
2018-07-28T11:17:21.331Z,16.40
2018-07-28T11:19:53.845Z,16.40
2018-07-28T11:22:25.917Z,16.30
2018-07-28T11:24:58.512Z,16.30
2018-07-28T11:27:30.679Z,16.30
2018-07-28T11:30:03.064Z,16.30
2018-07-28T11:32:44.787Z,16.30
2018-07-28T11:35:27.905Z,16.30
2018-07-28T11:38:11.120Z,16.30
2018-07-28T11:41:54.406Z,16.20
2018-07-28T11:44:36.176Z,16.20
2018-07-28T11:47:08.602Z,16.20
2018-07-28T11:49:40.948Z,16.10
2018-07-28T11:52:13.452Z,16.10
2018-07-28T11:54:46.072Z,16.00
2018-07-28T11:57:18.456Z,16.00
2018-07-28T11:59:50.989Z,16.00
2018-07-28T12:02:23.360Z,15.90
2018-07-28T12:04:55.610Z,15.90
2018-07-28T12:07:27.986Z,15.90
2018-07-28T12:10:00.309Z,15.80
2018-07-28T12:12:32.556Z,15.80
2018-07-28T12:15:05.022Z,15.70
2018-07-28T12:17:37.395Z,15.70
2018-07-28T12:20:09.757Z,15.60
2018-07-28T12:22:42.271Z,15.60
2018-07-28T12:25:14.715Z,15.50
2018-07-28T12:27:47.200Z,15.50
2018-07-28T12:30:20.289Z,15.50
2018-07-28T12:32:52.594Z,15.50
2018-07-28T12:35:25.186Z,15.50
2018-07-28T12:37:57.533Z,15.40
2018-07-28T12:40:29.910Z,15.30
2018-07-28T12:43:02.282Z,15.30
2018-07-28T12:45:34.505Z,15.30
2018-07-28T12:48:06.937Z,15.30
2018-07-28T12:53:10.642Z,15.30
2018-07-28T12:55:42.986Z,15.30
2018-07-28T12:58:15.297Z,15.20
2018-07-28T13:00:47.624Z,15.20
2018-07-28T13:03:20.021Z,15.10
2018-07-28T13:05:52.173Z,15.10
2018-07-28T13:08:24.930Z,15.20
2018-07-28T13:10:57.377Z,15.10
2018-07-28T13:13:29.499Z,15.10
2018-07-28T13:16:01.853Z,15.10
2018-07-28T13:18:34.039Z,15.20
2018-07-28T13:21:06.498Z,15.20
2018-07-28T13:23:39.144Z,15.20
2018-07-28T13:26:11.466Z,15.20
2018-07-28T13:28:43.734Z,15.30
2018-07-28T13:31:16.286Z,15.30
2018-07-28T13:33:48.672Z,15.30
2018-07-28T13:36:21.334Z,15.30
2018-07-28T13:38:53.745Z,15.30
2018-07-28T13:41:26.327Z,15.40
2018-07-28T13:43:58.883Z,15.50
2018-07-28T13:46:31.462Z,15.60
2018-07-28T13:49:03.838Z,15.70
2018-07-28T13:51:36.006Z,15.80
2018-07-28T13:54:08.904Z,15.90
2018-07-28T13:56:41.244Z,16.00
2018-07-28T13:59:13.463Z,16.10
2018-07-28T14:01:46.022Z,16.20
2018-07-28T14:04:18.511Z,16.30
2018-07-28T14:06:51.265Z,16.40
2018-07-28T14:09:23.456Z,16.50
2018-07-28T14:11:55.837Z,16.50
2018-07-28T14:14:28.086Z,16.70
2018-07-28T14:17:00.756Z,16.70
2018-07-28T14:19:32.971Z,16.70
2018-07-28T14:22:05.482Z,16.80
2018-07-28T14:24:38.092Z,16.90
2018-07-28T14:27:10.240Z,16.90
2018-07-28T14:29:42.842Z,17.00
2018-07-28T14:32:15.151Z,17.10
2018-07-28T14:34:47.405Z,17.20
2018-07-28T14:37:20.154Z,17.30
2018-07-28T14:42:23.932Z,17.60
2018-07-28T14:44:56.293Z,17.70
2018-07-28T14:47:28.868Z,17.90
2018-07-28T14:50:01.456Z,18.00
2018-07-28T14:52:33.643Z,18.20
2018-07-28T14:55:06.374Z,18.30
2018-07-28T14:57:38.821Z,18.40
2018-07-28T15:00:11.181Z,18.70
2018-07-28T15:02:44.172Z,18.80
2018-07-28T15:05:16.924Z,18.80
2018-07-28T15:07:49.915Z,19.00
2018-07-28T15:10:23.325Z,19.20
2018-07-28T15:15:27.496Z,19.30
2018-07-28T15:17:59.891Z,19.30
2018-07-28T15:20:32.648Z,19.40
2018-07-28T15:23:05.572Z,19.70
2018-07-28T15:25:38.539Z,19.90
2018-07-28T15:28:12.732Z,20.60
2018-07-28T15:30:47.566Z,21.40
2018-07-28T15:33:20.223Z,22.00
2018-07-28T15:35:52.994Z,22.80
2018-07-28T15:38:27.004Z,23.60
2018-07-28T15:41:00.189Z,24.50
2018-07-28T15:46:05.245Z,26.80
2018-07-28T15:48:39.434Z,27.50
2018-07-28T15:51:12.415Z,27.70
2018-07-28T15:53:45.562Z,29.00
2018-07-28T15:56:18.434Z,29.90
2018-07-28T15:58:51.418Z,30.20
2018-07-28T16:01:24.969Z,30.20
2018-07-28T16:03:58.502Z,30.80
2018-07-28T16:06:33.280Z,30.60
2018-07-28T16:09:06.502Z,29.60
2018-07-28T16:11:39.928Z,30.40
2018-07-28T16:14:12.838Z,30.10
2018-07-28T16:16:47.728Z,29.40
2018-07-28T16:19:20.526Z,28.40
2018-07-28T16:21:54.260Z,28.60
2018-07-28T16:24:26.845Z,29.30
2018-07-28T16:26:59.472Z,29.90
2018-07-28T16:29:32.357Z,30.70
2018-07-28T16:32:05.217Z,30.70
2018-07-28T16:37:10.865Z,32.20
2018-07-28T16:39:43.529Z,32.80
2018-07-28T16:42:16.784Z,32.90
2018-07-28T16:44:49.432Z,32.80
2018-07-28T16:47:22.464Z,33.00
2018-07-28T16:49:55.711Z,32.80
2018-07-28T16:52:28.463Z,32.80
2018-07-28T16:55:01.899Z,33.40
2018-07-28T16:57:35.079Z,33.80
2018-07-28T17:02:39.784Z,34.60
2018-07-28T17:05:12.471Z,34.90
2018-07-28T17:07:45.706Z,34.20
2018-07-28T17:10:18.807Z,34.60
2018-07-28T17:12:51.851Z,34.10
2018-07-28T17:15:24.675Z,35.30
2018-07-28T17:17:57.892Z,35.80
2018-07-28T17:20:30.632Z,35.90
2018-07-28T17:23:04.719Z,35.90
2018-07-28T17:25:37.414Z,35.90
2018-07-28T17:30:41.789Z,35.50
2018-07-28T17:33:14.911Z,36.30
2018-07-28T17:35:47.753Z,36.80
2018-07-28T17:38:20.425Z,36.60
2018-07-28T17:40:53.856Z,37.10
2018-07-28T17:43:27.059Z,36.80
2018-07-28T17:45:59.981Z,37.10
2018-07-28T17:48:33.974Z,36.60
2018-07-28T17:51:07.509Z,37.30
2018-07-28T17:53:40.273Z,36.90
2018-07-28T17:56:13.565Z,36.60
2018-07-28T17:58:46.839Z,35.30
2018-07-28T18:01:19.389Z,35.70
2018-07-28T18:03:52.393Z,37.00
2018-07-28T18:06:24.735Z,36.70
2018-07-28T18:08:57.645Z,36.90
2018-07-28T18:11:30.400Z,36.80
2018-07-28T18:14:03.043Z,37.40
2018-07-28T18:16:35.840Z,37.70
2018-07-28T18:19:08.274Z,37.50
2018-07-28T18:21:41.126Z,38.30
2018-07-28T18:24:13.865Z,37.00
2018-07-28T18:26:46.478Z,36.00
2018-07-28T18:29:19.431Z,36.10
2018-07-28T18:31:52.910Z,36.60
2018-07-28T18:34:26.099Z,35.70
2018-07-28T18:36:58.566Z,36.20
2018-07-28T18:39:31.073Z,35.90
2018-07-28T18:42:04.307Z,34.50
2018-07-28T18:44:37.472Z,34.90
2018-07-28T18:47:09.817Z,34.90
2018-07-28T18:49:42.754Z,35.20
2018-07-28T18:52:15.490Z,35.70
2018-07-28T18:54:47.948Z,35.90
2018-07-28T18:57:20.906Z,34.80
2018-07-28T19:02:25.221Z,35.40
2018-07-28T19:04:57.876Z,35.20
2018-07-28T19:07:30.229Z,36.10
2018-07-28T19:10:02.823Z,36.90
2018-07-28T19:12:40.204Z,37.30
2018-07-28T19:15:12.890Z,37.80
2018-07-28T19:17:49.790Z,38.50
2018-07-28T19:20:22.285Z,38.90
2018-07-28T19:22:59.410Z,38.00
2018-07-28T19:25:31.926Z,37.60
2018-07-28T19:28:09.377Z,38.20
2018-07-28T19:30:41.556Z,37.90
2018-07-28T19:33:14.417Z,36.40
2018-07-28T19:35:51.652Z,36.40
2018-07-28T19:38:24.196Z,35.60
2018-07-28T19:40:56.713Z,35.60
2018-07-28T19:43:30.398Z,35.20
2018-07-28T19:46:03.409Z,34.90
2018-07-28T19:48:36.352Z,34.40
2018-07-28T19:51:09.465Z,34.80
2018-07-28T19:53:42.415Z,34.40
2018-07-28T19:56:15.059Z,33.80
2018-07-28T19:58:47.730Z,34.30
2018-07-28T20:01:21.018Z,33.30
2018-07-28T20:03:53.822Z,32.30
2018-07-28T20:06:26.255Z,31.10
2018-07-28T20:11:29.722Z,30.10
2018-07-28T20:14:02.486Z,30.10
2018-07-28T20:16:34.913Z,30.30
2018-07-28T20:19:07.683Z,30.20
2018-07-28T20:21:40.545Z,29.90
2018-07-28T20:24:13.275Z,29.50
2018-07-28T20:26:45.987Z,29.60
2018-07-28T20:29:18.785Z,29.90
2018-07-28T20:31:51.665Z,29.40
2018-07-28T20:34:24.172Z,29.60
2018-07-28T20:36:57.195Z,29.70
2018-07-28T20:39:29.932Z,29.60
2018-07-28T20:42:03.005Z,29.50
2018-07-28T20:44:36.257Z,28.90
2018-07-28T20:47:10.842Z,29.00
2018-07-28T20:49:43.483Z,29.20
2018-07-28T20:52:16.424Z,29.40
2018-07-28T20:54:49.544Z,29.50
2018-07-28T20:57:21.987Z,29.50
2018-07-28T21:02:27.154Z,29.00
2018-07-28T21:05:00.184Z,29.20
2018-07-28T21:07:32.859Z,29.20
2018-07-28T21:10:05.791Z,29.20
2018-07-28T21:12:38.109Z,28.90
2018-07-28T21:15:11.150Z,28.80
2018-07-28T21:17:43.795Z,28.70
2018-07-28T21:20:16.291Z,28.70
2018-07-28T21:22:49.019Z,28.70
2018-07-28T21:25:21.912Z,28.90
2018-07-28T21:27:54.145Z,29.00
2018-07-28T21:32:59.187Z,29.10
2018-07-28T21:35:31.785Z,29.20
2018-07-28T21:38:03.810Z,28.90
2018-07-28T21:40:35.811Z,29.10
2018-07-28T21:43:08.605Z,29.10
2018-07-28T21:45:41.650Z,29.20
2018-07-28T21:48:13.995Z,29.40
2018-07-28T21:50:46.907Z,29.50
2018-07-28T21:53:19.179Z,29.60
2018-07-28T21:55:52.107Z,29.60
2018-07-28T21:58:24.900Z,29.60
2018-07-28T22:01:07.716Z,29.50
2018-07-28T22:03:40.513Z,29.40
2018-07-28T22:06:12.952Z,29.60
2018-07-28T22:08:45.362Z,29.60
2018-07-28T22:11:17.610Z,29.60
2018-07-28T22:13:50.579Z,29.60
2018-07-28T22:16:23.237Z,29.60
2018-07-28T22:21:26.909Z,29.70
2018-07-28T22:23:59.079Z,29.60
2018-07-28T22:26:32.116Z,29.60
2018-07-28T22:29:04.763Z,29.80
2018-07-28T22:31:37.145Z,29.80
2018-07-28T22:34:09.530Z,29.90
2018-07-28T22:41:45.615Z,29.90
2018-07-28T22:44:18.276Z,30.00
2018-07-28T22:46:50.641Z,30.00
2018-07-28T22:49:23.301Z,30.00
2018-07-28T22:51:55.973Z,30.00
2018-07-28T22:54:28.841Z,30.10
2018-07-28T22:57:00.958Z,30.20
2018-07-28T22:59:33.182Z,30.20
2018-07-28T23:02:05.390Z,30.30
2018-07-28T23:04:38.282Z,30.40
2018-07-28T23:07:10.740Z,30.40
2018-07-28T23:09:43.402Z,30.40
2018-07-28T23:12:16.544Z,30.40
2018-07-28T23:14:49.770Z,30.40
2018-07-28T23:17:21.948Z,30.40
2018-07-28T23:19:54.061Z,30.50
2018-07-28T23:22:26.078Z,30.60
2018-07-28T23:24:58.165Z,30.40
2018-07-28T23:27:33.647Z,30.30
2018-07-28T23:30:08.508Z,30.40
2018-07-28T23:32:41.585Z,30.40
2018-07-28T23:35:14.622Z,30.40
2018-07-28T23:37:47.360Z,30.40
2018-07-28T23:40:19.376Z,30.50
2018-07-28T23:42:51.434Z,30.50
2018-07-28T23:45:23.915Z,30.40
2018-07-28T23:47:56.491Z,30.50
2018-07-28T23:50:28.879Z,30.60
2018-07-28T23:53:01.513Z,30.60
2018-07-28T23:55:34.652Z,30.60
2018-07-28T23:58:07.231Z,30.70
